CheckWX is a tool to help pilots better visualize weather data.  It is not intended as a substitute for an official pre-flight weather briefing.

05:15:28 UTC

SLMG METAR
Magdalena Airport
Magdalena, Bolivia
Current

7 hours ago

SLMG 072200Z 00000KT 7000 VCSH FEW017 FEW023CB BKN200 26/24 Q1006
Observed
Dec-7 @ 22:00 UTC
Visibility
7,000 meters
Flight Rules
MVFR
Cloud Levels
  • Few at 1,700' AGL
  • Few at 2,300' AGL
  • Broken at 20,000' AGL
Temperature
26°C / 79°F
Dewpoint
24°C / 75°F
Humidity
89%
Altimeter
29.7" Hg
Pressure
1005.92 hPa
Previous

8 hours ago

SLMG 072100Z 00000KT 8000 VCSH FEW017 FEW023CB BKN200 28/25 Q1006
Observed
Dec-7 @ 21:00 UTC
Visibility
8,000 meters
Flight Rules
MVFR
Cloud Levels
  • Few at 1,700' AGL
  • Few at 2,300' AGL
  • Broken at 20,000' AGL
Temperature
28°C / 82°F
Dewpoint
25°C / 77°F
Heat Index
32°C / 90°F
Humidity
84%
Altimeter
29.7" Hg
Pressure
1005.92 hPa
Previous

9 hours ago

SLMG 072000Z 32004KT 8000 VCSH FEW017 FEW023CB SCT080 BKN200 28/24 Q1006
Observed
Dec-7 @ 20:00 UTC
Wind
  • 320° at 4 KTS
Visibility
8,000 meters
Flight Rules
MVFR
Cloud Levels
  • Few at 1,700' AGL
  • Few at 2,300' AGL
  • Scattered at 8,000' AGL
  • Broken at 20,000' AGL
Temperature
28°C / 82°F
Dewpoint
24°C / 75°F
Heat Index
32°C / 89°F
Humidity
79%
Altimeter
29.7" Hg
Pressure
1005.92 hPa